createdAt,value
2022-10-15T00:03:09.317Z,0.52
2022-10-15T00:08:12.460Z,0.60
2022-10-15T00:13:14.125Z,0.90
2022-10-15T00:18:15.924Z,0.60
2022-10-15T00:23:17.719Z,0.77
2022-10-15T00:28:19.641Z,0.98
2022-10-15T00:33:22.801Z,0.52
2022-10-15T00:38:24.612Z,0.70
2022-10-15T00:43:39.425Z,0.60
2022-10-15T00:48:41.584Z,0.80
2022-10-15T00:53:44.403Z,0.60
2022-10-15T00:58:47.186Z,0.70
2022-10-15T01:03:49.345Z,0.95
2022-10-15T01:08:52.215Z,0.82
2022-10-15T01:14:07.854Z,1.25
2022-10-15T01:19:44.975Z,0.52
2022-10-15T01:25:03.257Z,0.40
2022-10-15T01:30:05.373Z,0.82
2022-10-15T01:35:23.137Z,0.80
2022-10-15T01:40:32.693Z,0.52
2022-10-15T01:45:36.658Z,0.50
2022-10-15T01:50:44.013Z,0.50
2022-10-15T01:55:47.839Z,0.68
2022-10-15T02:00:52.164Z,0.80
2022-10-15T02:06:04.155Z,0.60
2022-10-15T02:11:10.868Z,0.85
2022-10-15T02:16:40.283Z,0.50
2022-10-15T02:21:47.465Z,0.55
2022-10-15T02:26:52.616Z,0.40
2022-10-15T02:31:57.840Z,0.80
2022-10-15T02:37:04.134Z,0.60
2022-10-15T02:42:06.577Z,0.68
2022-10-15T02:47:08.477Z,0.50
2022-10-15T02:52:10.393Z,0.40
2022-10-15T02:57:12.114Z,0.80
2022-10-15T03:02:16.771Z,0.50
2022-10-15T03:07:21.304Z,0.60
2022-10-15T03:12:23.724Z,0.57
2022-10-15T03:17:25.800Z,0.45
2022-10-15T03:22:28.129Z,0.50
2022-10-15T03:27:29.921Z,0.90
2022-10-15T03:32:34.229Z,0.60
2022-10-15T03:37:38.189Z,0.70
2022-10-15T03:42:40.098Z,0.60
2022-10-15T03:47:41.976Z,0.50
2022-10-15T03:52:43.875Z,0.68
2022-10-15T03:57:45.723Z,0.60
2022-10-15T04:02:47.617Z,0.50
2022-10-15T04:07:49.451Z,0.70
2022-10-15T04:12:51.220Z,0.90
2022-10-15T04:17:56.387Z,0.40
2022-10-15T04:22:58.269Z,0.60
2022-10-15T04:28:00.306Z,0.50
2022-10-15T04:33:02.187Z,0.45
2022-10-15T04:38:04.088Z,0.50
2022-10-15T04:43:05.885Z,0.88
2022-10-15T04:48:07.633Z,0.68
2022-10-15T04:53:09.429Z,0.60
2022-10-15T04:58:11.146Z,0.50
2022-10-15T05:03:12.966Z,0.77
2022-10-15T05:08:14.843Z,0.70
2022-10-15T05:13:16.756Z,0.43
2022-10-15T05:18:18.473Z,0.52
2022-10-15T05:23:20.200Z,0.57
2022-10-15T05:28:22.049Z,0.88
2022-10-15T05:33:23.852Z,0.65
2022-10-15T05:38:25.763Z,0.50
2022-10-15T05:43:27.386Z,0.68
2022-10-15T05:48:29.144Z,0.95
2022-10-15T05:53:31.190Z,0.70
2022-10-15T05:58:37.178Z,0.90
2022-10-15T06:03:41.465Z,0.90
2022-10-15T06:08:43.521Z,1.00
2022-10-15T06:13:46.303Z,1.13
2022-10-15T06:18:48.233Z,1.10
2022-10-15T06:23:50.015Z,0.98
2022-10-15T06:28:51.904Z,1.38
2022-10-15T06:33:53.689Z,0.88
2022-10-15T06:38:55.665Z,0.93
2022-10-15T06:43:57.442Z,0.90
2022-10-15T06:48:59.231Z,2.38
2022-10-15T06:54:01.107Z,2.53
2022-10-15T06:59:02.989Z,2.30
2022-10-15T07:04:04.809Z,2.00
2022-10-15T07:09:06.945Z,2.63
2022-10-15T07:14:09.109Z,2.72
2022-10-15T07:19:10.727Z,1.80
2022-10-15T07:24:12.595Z,2.00
2022-10-15T07:29:14.362Z,2.45
2022-10-15T07:34:16.121Z,2.13
2022-10-15T07:39:19.873Z,1.80
2022-10-15T07:44:21.978Z,1.48
2022-10-15T07:49:23.982Z,1.23
2022-10-15T07:54:25.786Z,1.23
2022-10-15T07:59:27.638Z,2.17
2022-10-15T08:04:29.510Z,1.48
2022-10-15T08:09:31.401Z,1.58
2022-10-15T08:14:34.669Z,2.05
2022-10-15T08:19:36.371Z,1.08
2022-10-15T08:24:38.145Z,1.33
2022-10-15T08:29:39.916Z,1.00
2022-10-15T08:34:41.609Z,1.10
2022-10-15T08:39:43.319Z,1.13
2022-10-15T08:44:51.383Z,0.82
2022-10-15T08:49:56.803Z,1.17
2022-10-15T08:55:01.843Z,1.00
2022-10-15T09:00:30.061Z,0.68
2022-10-15T09:06:06.605Z,0.45
2022-10-15T09:11:32.775Z,1.02
2022-10-15T09:16:37.574Z,0.70
2022-10-15T09:21:39.629Z,0.90
2022-10-15T09:27:11.902Z,1.05
2022-10-15T09:32:23.208Z,0.82
2022-10-15T09:37:31.619Z,0.65
2022-10-15T09:42:38.500Z,0.95
2022-10-15T09:47:42.742Z,0.85
2022-10-15T09:53:28.247Z,0.43
2022-10-15T09:58:37.240Z,0.40
2022-10-15T10:03:39.033Z,0.63
2022-10-15T10:08:50.872Z,0.73
2022-10-15T10:13:59.058Z,0.57
2022-10-15T10:19:14.480Z,0.50
2022-10-15T10:24:20.944Z,0.68
2022-10-15T10:29:39.317Z,0.80
2022-10-15T10:34:46.462Z,0.43
2022-10-15T10:39:59.494Z,0.57
2022-10-15T10:45:18.866Z,0.50
2022-10-15T10:50:33.580Z,0.35
2022-10-15T10:55:39.903Z,0.80
2022-10-15T11:00:47.711Z,0.20
2022-10-15T11:05:56.346Z,0.50
2022-10-15T11:11:14.560Z,0.50
2022-10-15T11:16:58.755Z,0.63
2022-10-15T11:22:37.508Z,0.40
2022-10-15T11:28:17.357Z,0.47
2022-10-15T11:33:29.707Z,0.40
2022-10-15T11:38:46.005Z,0.20
2022-10-15T11:43:47.868Z,0.30
2022-10-15T11:49:08.643Z,0.30
2022-10-15T11:54:31.844Z,0.30
2022-10-15T11:59:57.301Z,0.20
2022-10-15T12:05:21.354Z,0.40
2022-10-15T12:10:35.040Z,0.30
2022-10-15T12:15:45.900Z,0.35
2022-10-15T12:20:47.898Z,0.28
2022-10-15T12:25:50.027Z,2.97
2022-10-15T12:31:09.724Z,0.60
2022-10-15T12:36:31.426Z,0.40
2022-10-15T12:41:51.727Z,0.38
2022-10-15T12:46:53.895Z,0.57
2022-10-15T12:52:00.257Z,0.57
2022-10-15T12:57:05.141Z,0.30
2022-10-15T13:02:35.780Z,0.40
2022-10-15T13:07:41.225Z,0.22
2022-10-15T13:12:43.166Z,0.40
2022-10-15T13:17:45.129Z,0.30
2022-10-15T13:22:46.916Z,0.20
2022-10-15T13:27:48.864Z,0.10
2022-10-15T13:32:53.119Z,0.40
2022-10-15T13:37:56.781Z,0.22
2022-10-15T13:43:09.327Z,0.40
2022-10-15T13:48:13.414Z,0.40
2022-10-15T13:53:25.649Z,0.52
2022-10-15T13:58:31.607Z,0.25
2022-10-15T14:03:36.242Z,0.22
2022-10-15T14:08:38.413Z,0.52
2022-10-15T14:13:51.934Z,0.35
2022-10-15T14:19:11.439Z,0.40
2022-10-15T14:24:13.498Z,0.22
2022-10-15T14:29:46.360Z,0.30
2022-10-15T14:34:49.420Z,0.40
2022-10-15T14:39:51.288Z,0.22
2022-10-15T14:44:53.336Z,0.20
2022-10-15T14:50:00.199Z,0.40
2022-10-15T14:55:02.074Z,0.60
2022-10-15T15:00:31.985Z,0.25
2022-10-15T15:05:52.963Z,0.30
2022-10-15T15:10:58.045Z,0.38
2022-10-15T15:15:59.902Z,0.43
2022-10-15T15:21:04.640Z,0.30
2022-10-15T15:26:06.622Z,0.20
2022-10-15T15:31:15.980Z,0.20
2022-10-15T15:36:20.766Z,0.88
2022-10-15T15:41:25.912Z,0.20
2022-10-15T15:46:27.765Z,0.38
2022-10-15T15:51:31.994Z,0.30
2022-10-15T15:56:35.222Z,0.30
2022-10-15T16:01:37.399Z,0.47
2022-10-15T16:06:39.753Z,0.60
2022-10-15T16:11:42.078Z,0.40
2022-10-15T16:16:44.261Z,0.40
2022-10-15T16:21:46.296Z,0.30
2022-10-15T16:26:48.085Z,0.20
2022-10-15T16:31:50.176Z,0.30
2022-10-15T16:36:52.124Z,0.35
2022-10-15T16:41:54.163Z,0.57
2022-10-15T16:46:56.252Z,0.40
2022-10-15T16:51:58.057Z,0.43
2022-10-15T16:56:59.908Z,0.60
2022-10-15T17:02:01.876Z,1.00
2022-10-15T17:07:03.912Z,1.80
2022-10-15T17:12:05.739Z,6.80
2022-10-15T17:17:08.181Z,4.60
2022-10-15T17:22:10.327Z,4.35
2022-10-15T17:27:12.222Z,3.65
2022-10-15T17:32:14.106Z,2.33
2022-10-15T17:37:16.301Z,3.70
2022-10-15T17:42:19.077Z,3.35
2022-10-15T17:47:20.986Z,3.33
2022-10-15T17:52:23.128Z,3.35
2022-10-15T17:57:25.624Z,3.08
2022-10-15T18:02:27.968Z,6.40
2022-10-15T18:07:29.826Z,4.40
2022-10-15T18:12:31.572Z,3.42
2022-10-15T18:17:33.547Z,5.53
2022-10-15T18:22:35.714Z,3.75
2022-10-15T18:27:37.872Z,1.45
2022-10-15T18:32:40.035Z,1.98
2022-10-15T18:37:42.133Z,2.10
2022-10-15T18:42:47.670Z,3.10
2022-10-15T18:47:49.866Z,2.55
2022-10-15T18:52:51.783Z,1.95
2022-10-15T18:57:53.742Z,2.17
2022-10-15T19:02:57.533Z,1.60
2022-10-15T19:07:59.325Z,1.77
2022-10-15T19:13:01.770Z,1.80
2022-10-15T19:18:06.013Z,1.88
2022-10-15T19:23:08.156Z,1.58
2022-10-15T19:28:10.506Z,1.40
2022-10-15T19:33:12.447Z,1.83
2022-10-15T19:38:14.306Z,1.30
2022-10-15T19:43:18.997Z,0.93
2022-10-15T19:48:23.150Z,1.33
2022-10-15T19:53:25.290Z,1.08
2022-10-15T19:58:27.265Z,1.23
2022-10-15T20:03:30.864Z,1.00
2022-10-15T20:08:32.985Z,0.90
2022-10-15T20:13:36.210Z,1.60
2022-10-15T20:18:38.070Z,0.88
2022-10-15T20:23:41.732Z,0.55
2022-10-15T20:28:45.248Z,1.25
2022-10-15T20:33:47.694Z,0.70
2022-10-15T20:38:49.791Z,1.10
2022-10-15T20:43:56.633Z,1.52
2022-10-15T20:49:07.602Z,1.50
2022-10-15T20:54:13.061Z,1.92
2022-10-15T20:59:15.213Z,1.20
2022-10-15T21:04:17.292Z,1.83
2022-10-15T21:09:19.099Z,1.65
2022-10-15T21:14:21.011Z,1.77
2022-10-15T21:19:22.686Z,1.65
2022-10-15T21:24:28.248Z,2.05
2022-10-15T21:29:30.181Z,1.90
2022-10-15T21:34:32.036Z,1.83
2022-10-15T21:39:34.423Z,2.00
2022-10-15T21:44:36.401Z,1.00
2022-10-15T21:49:38.265Z,1.33
2022-10-15T21:54:43.186Z,2.13
2022-10-15T21:59:45.013Z,1.60
2022-10-15T22:04:46.768Z,1.55
2022-10-15T22:09:48.463Z,1.85
2022-10-15T22:14:50.142Z,1.20
2022-10-15T22:19:51.849Z,1.08
2022-10-15T22:24:54.693Z,1.17
2022-10-15T22:29:56.419Z,0.75
2022-10-15T22:34:58.065Z,1.27
2022-10-15T22:39:59.779Z,1.63
2022-10-15T22:45:01.631Z,1.38
2022-10-15T22:50:03.458Z,1.10
2022-10-15T22:55:05.655Z,1.00
2022-10-15T23:00:08.308Z,1.05
2022-10-15T23:05:10.082Z,1.10
2022-10-15T23:10:11.931Z,0.73
2022-10-15T23:15:13.790Z,0.52
2022-10-15T23:20:15.861Z,1.20
2022-10-15T23:25:17.732Z,1.55
2022-10-15T23:30:24.336Z,1.08
2022-10-15T23:35:26.912Z,1.45
2022-10-15T23:40:30.509Z,1.00
2022-10-15T23:45:32.454Z,1.48
2022-10-15T23:50:35.567Z,0.85
2022-10-15T23:55:38.958Z,1.17
